Time;durP1;ratioP1;P1;durP2;ratioP2;P2;SDS_P1;SDS_P2;PMS_P1;PMS_P2;Temp;Humidity;BMP_temperature;BMP_pressure;BME280_temperature;BME280_humidity;BME280_pressure;Samples;Min_cycle;Max_cycle;Signal;HPM_P1;HPM_P2
2023/06/18 00:02:04;;;;;;;7.97;5.60;;;18.60;67.20;;;;;;4988912;28;20295;-71
2023/06/18 00:04:31;;;;;;;9.05;6.13;;;18.60;67.10;;;;;;4974134;28;20150;-72
2023/06/18 00:06:57;;;;;;;8.48;5.00;;;18.60;67.20;;;;;;4984372;28;20105;-71
2023/06/18 00:09:23;;;;;;;9.07;5.65;;;18.60;67.10;;;;;;5001258;28;20442;-72
2023/06/18 00:11:49;;;;;;;8.23;5.93;;;18.60;67.10;;;;;;5001508;28;20488;-72
2023/06/18 00:14:16;;;;;;;7.65;6.10;;;18.60;67.30;;;;;;4990648;28;20035;-71
2023/06/18 00:16:42;;;;;;;8.57;5.60;;;18.50;67.20;;;;;;4987894;28;20108;-72
2023/06/18 00:19:07;;;;;;;8.52;5.57;;;18.50;67.30;;;;;;4991623;28;20085;-72
2023/06/18 00:21:33;;;;;;;7.70;5.53;;;18.50;67.20;;;;;;4977154;28;20027;-71
2023/06/18 00:23:59;;;;;;;6.03;4.90;;;18.40;67.50;;;;;;4973776;28;20298;-71
2023/06/18 00:26:25;;;;;;;6.88;5.10;;;18.40;68.20;;;;;;4973679;28;20385;-71
2023/06/18 00:28:51;;;;;;;8.68;6.40;;;18.30;67.80;;;;;;4973605;28;20106;-72
2023/06/18 00:31:17;;;;;;;11.05;6.25;;;18.30;68.00;;;;;;4973728;28;20035;-71
2023/06/18 00:33:46;;;;;;;10.27;6.18;;;18.30;68.50;;;;;;4973878;28;20038;-72
2023/06/18 00:36:12;;;;;;;9.90;6.03;;;18.20;68.60;;;;;;4990767;28;20029;-72
2023/06/18 00:38:45;;;;;;;10.57;6.68;;;18.20;68.90;;;;;;4992298;28;20023;-72
2023/06/18 00:41:11;;;;;;;8.63;6.87;;;18.10;69.80;;;;;;4990651;28;20489;-71
2023/06/18 00:43:37;;;;;;;9.18;6.40;;;18.10;70.40;;;;;;4990630;28;20022;-71
2023/06/18 00:46:05;;;;;;;11.25;6.55;;;18.10;70.60;;;;;;4992220;28;20049;-72
2023/06/18 00:48:31;;;;;;;10.32;6.70;;;18.10;70.50;;;;;;4992155;28;20030;-72
2023/06/18 00:50:58;;;;;;;7.20;5.65;;;18.10;70.70;;;;;;4991871;28;20026;-71
2023/06/18 00:53:25;;;;;;;7.75;5.25;;;18.00;71.00;;;;;;4991968;28;20070;-72
2023/06/18 00:55:52;;;;;;;8.48;6.20;;;17.90;70.90;;;;;;4991567;28;20049;-71
2023/06/18 00:58:23;;;;;;;8.32;5.68;;;17.90;70.90;;;;;;4991925;28;20461;-71
2023/06/18 01:00:50;;;;;;;10.32;5.60;;;17.90;71.00;;;;;;4991950;28;20106;-71
2023/06/18 01:03:18;;;;;;;8.10;5.97;;;17.90;70.90;;;;;;4991259;28;20093;-71
2023/06/18 01:05:47;;;;;;;8.73;6.38;;;17.80;70.90;;;;;;4990608;28;20117;-72
2023/06/18 01:08:13;;;;;;;8.05;5.78;;;17.80;71.00;;;;;;4991863;28;20034;-72
2023/06/18 01:10:40;;;;;;;8.10;6.28;;;17.70;71.50;;;;;;4991684;28;20027;-71
2023/06/18 01:13:12;;;;;;;9.80;6.70;;;17.70;71.70;;;;;;4990520;28;20062;-71
2023/06/18 01:15:38;;;;;;;10.88;7.10;;;17.70;72.30;;;;;;4991588;28;20410;-71
2023/06/18 01:18:06;;;;;;;10.45;5.47;;;17.60;72.40;;;;;;4991649;28;20026;-70
2023/06/18 01:20:40;;;;;;;9.77;6.45;;;17.60;72.40;;;;;;4991360;28;20504;-71
2023/06/18 01:23:15;;;;;;;10.75;5.95;;;17.50;72.20;;;;;;4991312;28;20030;-71
2023/06/18 01:25:43;;;;;;;10.15;6.18;;;17.50;72.20;;;;;;4991559;28;20030;-71
2023/06/18 01:28:10;;;;;;;8.93;6.25;;;17.40;72.20;;;;;;4991342;28;20029;-71
2023/06/18 01:30:36;;;;;;;10.93;6.13;;;17.40;72.20;;;;;;4991167;28;20047;-71
2023/06/18 01:33:04;;;;;;;8.73;6.07;;;17.40;72.00;;;;;;4979705;28;20026;-71
2023/06/18 01:35:30;;;;;;;8.98;6.32;;;17.40;72.10;;;;;;4970715;28;20033;-71
2023/06/18 01:38:21;;;;;;;9.10;6.97;;;17.40;72.60;;;;;;4979716;28;20485;-70
2023/06/18 01:40:49;;;;;;;9.57;7.22;;;17.40;73.50;;;;;;5003845;23;20070;-75
2023/06/18 01:43:25;;;;;;;11.50;6.88;;;17.30;74.00;;;;;;5003560;28;20077;-75
2023/06/18 01:45:57;;;;;;;11.43;7.28;;;17.30;74.70;;;;;;5005844;28;20497;-74
2023/06/18 01:48:24;;;;;;;12.00;8.40;;;17.30;74.90;;;;;;5005638;28;20026;-74
2023/06/18 01:50:52;;;;;;;10.32;7.43;;;17.30;75.50;;;;;;5004888;28;20033;-74
2023/06/18 01:53:21;;;;;;;11.25;8.15;;;17.20;75.50;;;;;;5003446;28;20684;-72
2023/06/18 01:55:50;;;;;;;11.65;7.93;;;17.20;75.70;;;;;;5005995;28;20503;-73
2023/06/18 01:58:16;;;;;;;10.40;7.88;;;17.20;75.90;;;;;;5005259;28;20029;-74
2023/06/18 02:00:41;;;;;;;10.32;7.55;;;17.20;76.20;;;;;;5002995;28;20543;-73
2023/06/18 02:03:08;;;;;;;13.70;8.15;;;17.10;76.40;;;;;;4982897;28;20106;-75
2023/06/18 02:05:34;;;;;;;12.77;8.45;;;17.10;76.70;;;;;;4985890;28;20053;-73
2023/06/18 02:08:00;;;;;;;12.43;8.35;;;17.10;77.00;;;;;;4984269;28;20033;-75
2023/06/18 02:10:26;;;;;;;10.65;8.00;;;17.00;77.30;;;;;;4998982;28;20388;-74
2023/06/18 02:12:51;;;;;;;11.75;8.38;;;16.90;77.40;;;;;;4998950;28;20034;-74
2023/06/18 02:15:17;;;;;;;14.70;8.32;;;16.90;77.70;;;;;;4985270;28;20030;-73
2023/06/18 02:17:43;;;;;;;13.60;7.97;;;16.80;77.90;;;;;;5002227;28;20459;-74
2023/06/18 02:20:10;;;;;;;10.50;7.78;;;16.80;78.00;;;;;;5004641;28;20513;-74
2023/06/18 02:22:37;;;;;;;11.75;7.75;;;16.80;78.10;;;;;;5002704;28;20022;-73
2023/06/18 02:25:04;;;;;;;11.20;8.73;;;16.80;78.00;;;;;;4986617;28;20044;-74
2023/06/18 02:27:30;;;;;;;12.77;8.30;;;16.70;78.10;;;;;;4989626;28;20033;-75
2023/06/18 02:29:55;;;;;;;9.75;7.68;;;16.70;78.40;;;;;;5001587;28;20026;-75
2023/06/18 02:32:21;;;;;;;10.98;8.00;;;16.70;78.50;;;;;;5003307;28;20796;-75
2023/06/18 02:34:47;;;;;;;11.50;7.68;;;16.70;78.60;;;;;;4979581;28;20064;-75
2023/06/18 02:37:12;;;;;;;12.93;8.88;;;16.60;78.70;;;;;;5002568;28;20018;-75
2023/06/18 02:39:38;;;;;;;11.98;8.10;;;16.60;78.90;;;;;;4988669;28;20536;-75
2023/06/18 02:42:06;;;;;;;12.57;7.82;;;16.50;79.00;;;;;;5002732;28;20038;-73
2023/06/18 02:44:32;;;;;;;13.07;7.70;;;16.50;78.90;;;;;;4990809;28;20442;-74
2023/06/18 02:46:58;;;;;;;9.63;7.13;;;16.40;78.60;;;;;;4988349;28;20021;-74
2023/06/18 02:49:23;;;;;;;9.43;6.45;;;16.40;78.40;;;;;;5002696;28;20025;-74
2023/06/18 02:51:49;;;;;;;10.15;5.88;;;16.30;77.90;;;;;;5004055;28;20072;-73
2023/06/18 02:54:15;;;;;;;8.20;5.90;;;16.40;77.80;;;;;;5006814;28;20589;-74
2023/06/18 02:56:42;;;;;;;9.48;5.82;;;16.30;77.70;;;;;;5007543;28;20014;-74
2023/06/18 02:59:07;;;;;;;8.80;6.30;;;16.30;77.40;;;;;;4991763;28;20105;-74
2023/06/18 03:01:33;;;;;;;8.50;5.80;;;16.30;77.90;;;;;;5007661;28;20109;-75
2023/06/18 03:03:59;;;;;;;8.15;6.47;;;16.30;77.40;;;;;;5005870;28;20026;-74
2023/06/18 03:06:27;;;;;;;9.88;6.45;;;16.40;77.20;;;;;;5006211;28;20565;-75
2023/06/18 03:08:53;;;;;;;10.48;6.35;;;16.30;77.40;;;;;;5009952;28;20033;-74
2023/06/18 03:11:19;;;;;;;8.00;5.80;;;16.20;77.60;;;;;;5010934;28;20030;-74
2023/06/18 03:13:44;;;;;;;9.88;6.50;;;16.20;77.70;;;;;;5008538;28;20039;-74
2023/06/18 03:16:10;;;;;;;10.80;6.63;;;16.20;77.90;;;;;;5006714;28;20022;-74
2023/06/18 03:18:37;;;;;;;8.45;6.05;;;16.10;77.80;;;;;;5003621;28;20045;-74
2023/06/18 03:21:03;;;;;;;10.77;6.20;;;16.10;77.70;;;;;;5002887;28;20485;-75
2023/06/18 03:23:28;;;;;;;7.65;5.72;;;16.10;77.80;;;;;;5007836;28;20033;-73
2023/06/18 03:25:54;;;;;;;10.25;6.65;;;16.10;77.70;;;;;;4992140;28;20104;-75
2023/06/18 03:28:22;;;;;;;10.65;5.85;;;16.10;77.70;;;;;;4999816;28;20065;-75
2023/06/18 03:30:47;;;;;;;9.52;5.75;;;16.00;77.80;;;;;;5005955;28;20411;-75
2023/06/18 03:33:13;;;;;;;8.65;5.40;;;16.10;78.10;;;;;;5002733;28;20026;-74
2023/06/18 03:35:39;;;;;;;12.30;6.03;;;16.10;78.10;;;;;;5006457;28;20668;-75
2023/06/18 03:38:05;;;;;;;8.70;6.00;;;16.00;78.00;;;;;;5005094;28;20024;-75
2023/06/18 03:40:30;;;;;;;10.85;6.22;;;16.00;78.00;;;;;;5005580;28;20018;-74
2023/06/18 03:42:56;;;;;;;10.48;6.47;;;16.10;78.00;;;;;;5005917;28;20084;-74
2023/06/18 03:45:21;;;;;;;10.63;6.88;;;16.10;78.00;;;;;;5008164;28;20034;-74
2023/06/18 03:47:47;;;;;;;10.05;7.20;;;16.10;78.00;;;;;;5004191;28;20034;-74
2023/06/18 03:50:13;;;;;;;10.18;6.22;;;16.00;77.90;;;;;;4986167;28;20036;-74
2023/06/18 03:52:39;;;;;;;13.20;6.80;;;16.00;77.90;;;;;;5007293;28;20041;-74
2023/06/18 03:55:05;;;;;;;10.45;6.43;;;16.00;77.80;;;;;;4987428;28;20050;-74
2023/06/18 03:57:31;;;;;;;11.50;6.82;;;16.00;78.10;;;;;;5003932;28;20025;-74
2023/06/18 03:59:57;;;;;;;15.23;7.75;;;16.00;78.40;;;;;;5005806;28;20026;-74
2023/06/18 04:02:23;;;;;;;11.27;7.47;;;16.10;78.80;;;;;;5007068;28;20026;-74
2023/06/18 04:04:49;;;;;;;13.07;8.05;;;16.10;79.30;;;;;;4988674;28;20168;-75
2023/06/18 04:07:14;;;;;;;11.00;7.65;;;16.10;79.60;;;;;;4984980;28;20109;-74
2023/06/18 04:09:41;;;;;;;11.27;7.57;;;16.20;79.90;;;;;;5006443;28;20125;-75
2023/06/18 04:12:07;;;;;;;10.27;6.78;;;16.20;80.20;;;;;;4988975;28;20065;-73
2023/06/18 04:14:34;;;;;;;13.13;7.68;;;16.20;80.10;;;;;;4992633;28;20072;-74
2023/06/18 04:17:00;;;;;;;10.02;7.25;;;16.20;80.70;;;;;;5007945;28;20036;-74
2023/06/18 04:19:26;;;;;;;11.45;7.53;;;16.20;80.20;;;;;;5005040;28;20026;-74
2023/06/18 04:21:52;;;;;;;12.10;7.97;;;16.20;80.20;;;;;;4990292;28;20030;-74
2023/06/18 04:24:17;;;;;;;9.13;6.80;;;16.30;80.00;;;;;;5011139;28;20115;-74
2023/06/18 04:26:43;;;;;;;10.48;7.13;;;16.30;80.20;;;;;;5003226;28;20844;-73
2023/06/18 04:29:09;;;;;;;11.45;7.10;;;16.40;80.10;;;;;;5007430;28;20026;-73
2023/06/18 04:31:35;;;;;;;10.40;6.97;;;16.40;80.00;;;;;;5002418;28;20036;-74
2023/06/18 04:34:01;;;;;;;9.63;6.57;;;16.40;80.10;;;;;;4984514;28;20484;-74
2023/06/18 04:36:26;;;;;;;10.60;7.10;;;16.50;80.20;;;;;;5000236;28;20107;-74
2023/06/18 04:38:52;;;;;;;9.40;6.68;;;16.50;80.10;;;;;;4996111;28;20050;-74
2023/06/18 04:41:18;;;;;;;11.75;6.90;;;16.60;80.00;;;;;;5003701;28;20053;-72
2023/06/18 04:43:44;;;;;;;9.63;6.45;;;16.60;79.70;;;;;;4999854;28;20113;-75
2023/06/18 04:46:10;;;;;;;8.88;6.22;;;16.70;79.40;;;;;;4984633;28;20218;-75
2023/06/18 04:48:35;;;;;;;10.88;7.22;;;16.80;79.20;;;;;;5005004;28;20041;-75
2023/06/18 04:51:01;;;;;;;10.68;6.45;;;16.90;79.10;;;;;;5002450;28;20041;-73
2023/06/18 04:53:27;;;;;;;8.85;7.20;;;17.00;78.80;;;;;;4985255;28;20499;-75
2023/06/18 04:55:52;;;;;;;12.65;7.15;;;17.10;78.50;;;;;;4984441;28;20029;-74
2023/06/18 04:58:20;;;;;;;10.18;7.18;;;17.10;78.20;;;;;;5001131;28;20105;-73
2023/06/18 05:00:46;;;;;;;9.30;6.45;;;17.20;78.20;;;;;;5005072;28;20018;-74
2023/06/18 05:03:12;;;;;;;8.73;6.57;;;17.30;77.90;;;;;;5006453;28;20124;-74
2023/06/18 05:05:38;;;;;;;9.27;7.05;;;17.30;77.60;;;;;;4985481;28;20125;-74
2023/06/18 05:08:04;;;;;;;10.60;5.90;;;17.30;77.20;;;;;;5002690;28;20034;-75
2023/06/18 05:10:30;;;;;;;10.73;6.88;;;17.40;77.10;;;;;;5005743;28;20116;-74
2023/06/18 05:12:55;;;;;;;9.80;5.70;;;17.40;77.00;;;;;;5002837;28;20109;-74
2023/06/18 05:15:21;;;;;;;9.55;6.72;;;17.40;76.60;;;;;;4998779;28;20030;-73
2023/06/18 05:17:47;;;;;;;8.10;6.00;;;17.40;76.50;;;;;;5005196;28;20121;-74
2023/06/18 05:20:12;;;;;;;10.07;6.38;;;17.50;76.30;;;;;;5001953;28;20030;-76
2023/06/18 05:22:40;;;;;;;8.30;6.05;;;17.50;76.00;;;;;;5004570;28;20036;-76
2023/06/18 05:25:06;;;;;;;8.98;6.40;;;17.60;75.80;;;;;;5007840;28;20053;-74
2023/06/18 05:27:31;;;;;;;11.43;6.55;;;17.70;75.30;;;;;;5003747;28;20026;-74
2023/06/18 05:29:59;;;;;;;8.98;6.63;;;17.80;75.30;;;;;;4989051;28;20037;-75
2023/06/18 05:32:24;;;;;;;9.68;6.53;;;17.90;75.00;;;;;;5002778;28;20120;-73
2023/06/18 05:34:50;;;;;;;7.88;5.95;;;17.90;74.60;;;;;;4992409;28;20116;-74
2023/06/18 05:37:16;;;;;;;11.88;6.35;;;18.10;75.20;;;;;;4982425;28;20026;-75
2023/06/18 05:39:42;;;;;;;8.35;6.03;;;18.20;74.40;;;;;;4992475;28;20030;-74
2023/06/18 05:42:08;;;;;;;10.05;6.22;;;18.30;74.10;;;;;;5003214;28;20588;-75
2023/06/18 05:44:33;;;;;;;10.38;6.40;;;18.40;73.80;;;;;;5001327;28;20108;-76
2023/06/18 05:46:59;;;;;;;9.38;6.20;;;18.50;73.60;;;;;;5003297;28;20034;-74
2023/06/18 05:49:26;;;;;;;9.77;6.38;;;18.60;73.40;;;;;;5004336;28;20034;-75
2023/06/18 05:51:51;;;;;;;8.75;6.38;;;18.70;73.00;;;;;;4985051;28;20041;-70
2023/06/18 05:54:17;;;;;;;9.45;5.95;;;18.80;72.50;;;;;;5003278;28;20026;-70
2023/06/18 05:56:43;;;;;;;8.73;6.38;;;18.90;72.30;;;;;;5003574;28;20056;-70
2023/06/18 05:59:09;;;;;;;8.70;6.30;;;19.00;72.20;;;;;;4983936;28;20113;-70
2023/06/18 06:01:35;;;;;;;8.95;6.38;;;19.10;71.80;;;;;;4994395;28;24399;-70
2023/06/18 06:04:01;;;;;;;9.15;6.75;;;19.20;71.60;;;;;;5003112;28;20022;-70
2023/06/18 06:06:27;;;;;;;10.02;6.40;;;19.30;71.30;;;;;;4999870;28;20048;-70
2023/06/18 06:08:53;;;;;;;9.82;6.90;;;19.40;71.20;;;;;;5002223;28;20061;-69
2023/06/18 06:11:19;;;;;;;12.10;7.57;;;19.60;70.90;;;;;;5005386;28;20388;-68
2023/06/18 06:13:45;;;;;;;13.00;8.60;;;19.60;70.50;;;;;;5004603;28;20421;-69
2023/06/18 06:16:11;;;;;;;11.82;7.80;;;19.70;70.70;;;;;;4982769;28;20022;-68
2023/06/18 06:18:37;;;;;;;10.75;6.80;;;19.80;70.80;;;;;;5007796;28;20027;-69
2023/06/18 06:21:02;;;;;;;10.07;7.40;;;19.80;70.60;;;;;;5009919;28;20053;-75
2023/06/18 06:23:30;;;;;;;10.13;7.00;;;19.90;70.50;;;;;;4990377;28;20566;-69
2023/06/18 06:25:55;;;;;;;13.65;6.50;;;20.00;70.40;;;;;;5005067;28;20663;-70
2023/06/18 06:28:21;;;;;;;9.32;7.00;;;20.10;69.20;;;;;;5009770;28;20053;-72
2023/06/18 06:30:47;;;;;;;10.30;7.72;;;20.20;68.70;;;;;;4995864;28;20069;-69
2023/06/18 06:33:12;;;;;;;9.73;7.72;;;20.20;68.20;;;;;;5005407;28;20030;-72
2023/06/18 06:35:38;;;;;;;9.43;8.13;;;20.20;68.50;;;;;;5004953;28;20057;-72
2023/06/18 06:38:04;;;;;;;9.38;7.80;;;20.30;68.70;;;;;;5005912;28;20026;-72
2023/06/18 06:40:30;;;;;;;11.88;7.82;;;20.30;68.70;;;;;;5006368;28;20109;-72
2023/06/18 06:42:55;;;;;;;8.40;7.03;;;20.30;68.60;;;;;;5004532;28;20121;-73
2023/06/18 06:45:21;;;;;;;11.25;7.43;;;20.40;68.60;;;;;;5005895;28;20084;-80
2023/06/18 06:47:48;;;;;;;11.10;7.65;;;20.50;69.00;;;;;;5013105;28;20041;-77
2023/06/18 06:50:14;;;;;;;12.32;8.10;;;20.50;68.70;;;;;;4996799;28;20100;-79
2023/06/18 06:52:39;;;;;;;9.65;7.05;;;20.60;69.00;;;;;;5017130;28;20026;-77
2023/06/18 06:55:05;;;;;;;8.40;6.82;;;20.60;68.60;;;;;;5014239;28;20362;-78
2023/06/18 06:57:31;;;;;;;10.00;6.45;;;20.60;67.80;;;;;;4994795;28;20045;-77
2023/06/18 06:59:56;;;;;;;9.73;7.07;;;20.70;68.00;;;;;;5014387;28;20038;-78
2023/06/18 07:02:22;;;;;;;12.13;7.57;;;20.70;68.90;;;;;;4998622;28;20030;-76
2023/06/18 07:04:48;;;;;;;11.45;7.80;;;20.70;68.20;;;;;;4979605;28;20030;-76
2023/06/18 07:07:15;;;;;;;9.43;7.13;;;20.70;67.20;;;;;;4997526;28;20022;-77
2023/06/18 07:09:41;;;;;;;9.45;6.70;;;20.80;67.60;;;;;;4997695;28;20029;-78
2023/06/18 07:12:07;;;;;;;9.00;6.53;;;20.90;67.10;;;;;;4997327;28;20062;-76
2023/06/18 07:14:32;;;;;;;8.48;6.55;;;20.90;66.70;;;;;;4998024;28;20612;-76
2023/06/18 07:16:58;;;;;;;11.50;7.38;;;21.00;66.40;;;;;;4980800;28;20057;-77
2023/06/18 07:19:24;;;;;;;9.48;7.15;;;21.00;65.30;;;;;;4980683;28;20018;-77
2023/06/18 07:21:50;;;;;;;9.65;6.95;;;21.00;65.40;;;;;;4997730;28;20034;-77
2023/06/18 07:24:16;;;;;;;7.93;6.40;;;21.00;65.60;;;;;;4980066;28;20018;-77
2023/06/18 07:26:42;;;;;;;9.90;6.57;;;21.10;65.70;;;;;;4979840;28;20086;-75
2023/06/18 07:29:08;;;;;;;8.15;6.32;;;21.10;65.80;;;;;;4997061;28;20485;-75
2023/06/18 07:31:35;;;;;;;7.75;6.38;;;21.20;66.40;;;;;;4996101;28;20085;-76
2023/06/18 07:34:00;;;;;;;10.20;7.07;;;21.20;66.20;;;;;;4996386;28;20030;-75
2023/06/18 07:36:26;;;;;;;7.10;5.72;;;21.30;66.20;;;;;;4979495;28;20517;-77
2023/06/18 07:38:52;;;;;;;8.23;6.40;;;21.40;66.50;;;;;;4978938;28;20072;-77
2023/06/18 07:41:17;;;;;;;11.43;7.53;;;21.40;66.80;;;;;;4998927;28;20027;-77
2023/06/18 07:43:43;;;;;;;10.00;7.07;;;21.50;66.80;;;;;;5007616;28;20049;-77
2023/06/18 07:46:09;;;;;;;9.18;7.03;;;21.60;66.30;;;;;;4992517;28;20034;-76
2023/06/18 07:48:38;;;;;;;10.57;7.45;;;21.70;66.20;;;;;;4993593;28;20034;-77
2023/06/18 07:51:05;;;;;;;8.63;6.53;;;21.70;65.80;;;;;;5006315;28;20049;-78
2023/06/18 07:53:32;;;;;;;7.78;6.45;;;21.80;65.50;;;;;;5010765;28;20076;-77
2023/06/18 07:55:58;;;;;;;10.07;6.90;;;21.90;65.80;;;;;;4992042;28;20912;-78
2023/06/18 07:58:24;;;;;;;9.82;7.07;;;21.90;65.80;;;;;;5004517;28;20475;-77
2023/06/18 08:00:50;;;;;;;11.05;7.20;;;22.00;65.70;;;;;;5007239;28;20022;-78
2023/06/18 08:03:16;;;;;;;8.50;6.93;;;22.00;65.60;;;;;;5009857;28;20377;-77
2023/06/18 08:05:42;;;;;;;10.20;6.43;;;22.10;65.70;;;;;;4987654;28;20034;-78
2023/06/18 08:08:07;;;;;;;8.10;6.78;;;22.10;65.30;;;;;;4995921;28;20479;-78
2023/06/18 08:10:33;;;;;;;10.18;5.97;;;22.10;65.70;;;;;;5013696;28;20124;-77
2023/06/18 08:12:59;;;;;;;7.35;6.00;;;22.20;65.90;;;;;;4984852;28;20030;-76
2023/06/18 08:15:25;;;;;;;9.88;6.72;;;22.40;65.70;;;;;;4990920;28;20034;-78
2023/06/18 08:17:52;;;;;;;9.18;6.30;;;22.50;65.50;;;;;;4992179;28;20384;-77
2023/06/18 08:20:18;;;;;;;11.27;6.63;;;22.60;65.60;;;;;;5004925;28;20025;-78
2023/06/18 08:22:43;;;;;;;10.95;6.72;;;22.70;65.50;;;;;;4991333;28;20480;-78
2023/06/18 08:25:09;;;;;;;9.48;6.38;;;22.80;65.30;;;;;;5006706;28;20026;-78
2023/06/18 08:27:35;;;;;;;10.57;6.85;;;22.90;65.40;;;;;;4991093;28;20022;-77
2023/06/18 08:30:01;;;;;;;8.93;6.28;;;23.00;66.00;;;;;;5000783;28;20025;-77
2023/06/18 08:32:26;;;;;;;7.95;6.30;;;23.00;66.00;;;;;;5007139;28;20501;-77
2023/06/18 08:34:52;;;;;;;9.13;6.45;;;23.10;65.50;;;;;;4987324;28;20033;-77
2023/06/18 08:37:18;;;;;;;9.43;6.68;;;23.20;65.80;;;;;;4991903;28;20015;-77
2023/06/18 08:39:44;;;;;;;10.23;6.68;;;23.30;65.90;;;;;;5010785;28;20346;-76
2023/06/18 08:42:13;;;;;;;14.95;6.68;;;23.50;65.40;;;;;;5004859;28;20085;-77
2023/06/18 08:44:38;;;;;;;10.18;7.25;;;23.60;64.70;;;;;;5008387;28;20101;-77
2023/06/18 08:47:04;;;;;;;10.48;6.78;;;23.70;64.60;;;;;;5010423;28;20057;-77
2023/06/18 08:49:31;;;;;;;14.32;6.55;;;23.70;64.50;;;;;;5012012;28;20025;-77
2023/06/18 08:52:00;;;;;;;8.80;6.45;;;23.70;64.20;;;;;;4988597;28;20026;-77
2023/06/18 08:54:33;;;;;;;9.15;6.28;;;23.80;64.30;;;;;;4989836;28;20017;-77
2023/06/18 08:57:08;;;;;;;7.95;6.60;;;23.80;63.70;;;;;;4987515;28;20026;-78
2023/06/18 08:59:35;;;;;;;9.77;6.60;;;23.90;63.40;;;;;;5006313;28;20032;-78
2023/06/18 09:02:03;;;;;;;11.30;6.40;;;23.90;63.10;;;;;;4985312;28;20022;-78
2023/06/18 09:04:29;;;;;;;13.45;6.85;;;24.00;62.80;;;;;;5006035;28;20076;-77
2023/06/18 09:06:56;;;;;;;10.25;7.05;;;24.10;62.50;;;;;;4991469;28;20084;-78
2023/06/18 09:09:22;;;;;;;8.98;6.22;;;24.10;62.50;;;;;;4986263;28;20026;-78
2023/06/18 09:11:47;;;;;;;12.68;6.43;;;24.20;61.80;;;;;;5003943;28;20108;-77
2023/06/18 09:14:15;;;;;;;7.85;6.00;;;24.20;61.10;;;;;;4989751;28;20029;-78
2023/06/18 09:16:41;;;;;;;8.23;5.90;;;24.30;61.10;;;;;;4974813;28;20069;-78
2023/06/18 09:19:08;;;;;;;8.15;6.25;;;24.30;61.50;;;;;;4998605;28;20022;-77
2023/06/18 09:21:38;;;;;;;6.75;5.78;;;24.40;60.70;;;;;;5005747;28;20121;-78
2023/06/18 09:24:20;;;;;;;8.20;5.70;;;24.50;60.40;;;;;;4988344;28;20025;-77
2023/06/18 09:27:02;;;;;;;9.07;6.40;;;24.70;59.70;;;;;;5007717;28;20413;-77
2023/06/18 09:29:29;;;;;;;7.30;5.68;;;24.70;59.30;;;;;;5010090;28;20022;-77
2023/06/18 09:31:55;;;;;;;8.30;6.00;;;24.90;58.50;;;;;;5011116;28;20018;-78
2023/06/18 09:34:21;;;;;;;7.38;5.70;;;24.90;59.00;;;;;;4988697;28;20021;-78
2023/06/18 09:36:49;;;;;;;9.48;6.43;;;25.00;59.20;;;;;;5009867;28;20420;-77
2023/06/18 09:39:19;;;;;;;5.85;5.10;;;25.00;59.40;;;;;;5008194;28;20026;-78
2023/06/18 09:41:47;;;;;;;8.02;5.78;;;25.20;57.00;;;;;;5002919;28;20035;-77
2023/06/18 09:44:23;;;;;;;6.30;4.90;;;25.30;55.70;;;;;;5007588;28;20022;-78
2023/06/18 09:46:54;;;;;;;6.88;5.63;;;25.40;54.80;;;;;;4994247;28;20029;-77
2023/06/18 09:49:21;;;;;;;7.78;5.55;;;25.40;56.10;;;;;;5002744;28;20121;-76
2023/06/18 09:51:53;;;;;;;9.45;6.25;;;25.50;55.50;;;;;;4987772;28;20052;-78
2023/06/18 09:54:20;;;;;;;9.00;5.10;;;25.50;55.60;;;;;;5013561;28;20408;-79
2023/06/18 09:57:02;;;;;;;6.45;5.50;;;25.70;55.90;;;;;;5010416;28;20456;-77
2023/06/18 09:59:31;;;;;;;7.35;5.53;;;25.80;55.50;;;;;;4993350;28;20131;-78
2023/06/18 10:01:57;;;;;;;7.85;5.70;;;25.90;55.30;;;;;;5003163;28;20025;-77
2023/06/18 10:04:25;;;;;;;7.07;5.50;;;25.90;54.20;;;;;;4983476;28;20045;-80
2023/06/18 10:06:53;;;;;;;5.53;4.70;;;26.00;54.20;;;;;;5014125;28;20033;-79
2023/06/18 10:09:24;;;;;;;9.88;6.80;;;26.00;54.10;;;;;;5003355;28;20056;-79
2023/06/18 10:11:54;;;;;;;8.45;5.32;;;26.00;55.70;;;;;;4997464;28;20262;-78
2023/06/18 10:14:25;;;;;;;7.95;6.28;;;26.20;53.80;;;;;;4999895;28;20106;-76
2023/06/18 10:16:53;;;;;;;8.13;6.22;;;26.30;53.50;;;;;;4998107;28;20022;-78
2023/06/18 10:19:35;;;;;;;8.52;5.53;;;26.40;53.70;;;;;;4995647;28;20018;-76
2023/06/18 10:22:05;;;;;;;6.97;4.85;;;26.40;53.20;;;;;;4993983;28;20026;-76
2023/06/18 10:24:42;;;;;;;8.43;5.35;;;26.50;53.20;;;;;;5011027;28;20081;-76
2023/06/18 10:27:11;;;;;;;9.95;5.90;;;26.50;53.50;;;;;;5009450;28;20381;-76
2023/06/18 10:29:37;;;;;;;6.45;5.20;;;26.50;53.50;;;;;;4992481;28;20110;-78
2023/06/18 10:32:04;;;;;;;7.05;5.57;;;26.60;52.80;;;;;;4990147;28;20029;-78
2023/06/18 10:34:32;;;;;;;6.40;5.60;;;26.60;53.00;;;;;;5009754;28;20029;-78
2023/06/18 10:36:59;;;;;;;9.70;6.80;;;26.70;52.50;;;;;;5022360;28;20033;-78
2023/06/18 10:39:26;;;;;;;8.95;5.75;;;26.70;52.50;;;;;;5002588;28;20254;-78
2023/06/18 10:41:53;;;;;;;7.45;5.40;;;26.80;52.10;;;;;;5001780;28;20151;-78
2023/06/18 10:44:47;;;;;;;7.53;5.25;;;26.80;52.00;;;;;;5002462;28;20081;-77
2023/06/18 10:47:27;;;;;;;5.65;5.05;;;26.80;52.40;;;;;;4995596;28;20468;-79
2023/06/18 10:50:07;;;;;;;6.55;5.43;;;26.80;52.50;;;;;;5003387;28;20026;-79
2023/06/18 10:52:34;;;;;;;8.45;5.50;;;26.80;52.10;;;;;;5017084;28;20034;-78
2023/06/18 10:55:27;;;;;;;6.88;5.72;;;26.80;52.00;;;;;;5014607;28;20104;-78
2023/06/18 10:57:58;;;;;;;6.93;5.50;;;26.90;52.70;;;;;;5013295;28;20037;-79
2023/06/18 11:00:29;;;;;;;6.53;5.50;;;26.90;52.60;;;;;;5010372;28;20039;-79
2023/06/18 11:02:59;;;;;;;6.30;5.00;;;26.90;52.40;;;;;;5006428;28;20411;-79
2023/06/18 11:05:36;;;;;;;7.18;5.45;;;27.00;52.00;;;;;;5018026;28;20081;-77
2023/06/18 11:08:05;;;;;;;7.60;5.13;;;27.10;52.30;;;;;;5019450;28;20032;-78
2023/06/18 11:11:00;;;;;;;6.50;5.78;;;27.10;53.00;;;;;;4999821;28;20029;-77
2023/06/18 11:13:32;;;;;;;6.50;5.45;;;27.20;52.30;;;;;;5014929;28;20057;-77
2023/06/18 11:16:00;;;;;;;6.95;5.28;;;27.30;51.40;;;;;;5007844;28;20033;-78
2023/06/18 11:18:27;;;;;;;6.88;5.22;;;27.30;51.80;;;;;;4998968;28;20061;-77
2023/06/18 11:20:57;;;;;;;6.53;5.40;;;27.40;51.50;;;;;;5016512;28;20036;-76
2023/06/18 11:23:23;;;;;;;6.35;5.40;;;27.50;51.40;;;;;;5006143;28;20026;-76
2023/06/18 11:25:50;;;;;;;7.57;5.72;;;27.50;51.50;;;;;;5008645;28;20022;-76
2023/06/18 11:28:16;;;;;;;8.00;6.07;;;27.40;51.20;;;;;;4989734;28;20499;-76
2023/06/18 11:30:51;;;;;;;5.80;5.15;;;27.40;51.30;;;;;;4990532;28;20026;-77
2023/06/18 11:33:28;;;;;;;6.90;5.35;;;27.40;51.50;;;;;;5007216;28;20378;-76
2023/06/18 11:35:55;;;;;;;8.10;4.78;;;27.30;51.70;;;;;;5006421;28;20030;-74
2023/06/18 11:38:22;;;;;;;5.40;4.85;;;27.30;52.10;;;;;;5004678;28;20018;-73
2023/06/18 11:40:52;;;;;;;7.00;4.60;;;27.30;53.40;;;;;;5008746;28;20022;-73
2023/06/18 11:43:19;;;;;;;6.55;5.50;;;27.30;53.20;;;;;;4988082;28;20026;-72
2023/06/18 11:45:49;;;;;;;6.85;4.70;;;27.20;52.30;;;;;;4999663;28;20034;-74
2023/06/18 11:48:16;;;;;;;7.10;5.13;;;27.30;52.80;;;;;;4987059;28;20492;-73
2023/06/18 11:50:43;;;;;;;8.65;5.55;;;27.40;52.10;;;;;;4988472;28;20029;-72
2023/06/18 11:53:10;;;;;;;7.63;5.47;;;27.50;51.90;;;;;;5004973;28;20100;-72
2023/06/18 11:55:36;;;;;;;6.72;5.03;;;27.50;51.50;;;;;;5004701;28;20044;-72
2023/06/18 11:58:02;;;;;;;6.28;4.85;;;27.50;53.70;;;;;;4988464;28;20025;-75
2023/06/18 12:00:28;;;;;;;9.07;4.97;;;27.50;54.50;;;;;;5009721;28;20049;-75
2023/06/18 12:02:54;;;;;;;6.47;5.07;;;27.40;53.80;;;;;;5006744;28;20014;-74
2023/06/18 12:05:20;;;;;;;8.65;5.75;;;27.50;52.90;;;;;;5004002;28;20037;-74
2023/06/18 12:07:45;;;;;;;10.15;5.57;;;27.50;52.40;;;;;;5010646;28;20100;-74
2023/06/18 12:10:13;;;;;;;9.20;5.47;;;27.50;53.40;;;;;;5006787;28;20022;-74
2023/06/18 12:12:52;;;;;;;7.03;5.18;;;27.60;52.80;;;;;;5007569;28;20025;-74
2023/06/18 12:15:25;;;;;;;6.95;5.38;;;27.60;52.40;;;;;;4997252;28;20030;-73
2023/06/18 12:18:07;;;;;;;12.93;7.85;;;27.60;52.00;;;;;;5000973;28;20030;-73
2023/06/18 12:20:35;;;;;;;14.93;8.10;;;27.70;51.50;;;;;;4987971;28;20038;-72
2023/06/18 12:23:02;;;;;;;8.32;5.35;;;27.70;50.90;;;;;;5004508;28;20034;-72
2023/06/18 12:25:30;;;;;;;9.10;5.85;;;27.70;52.30;;;;;;4999965;28;20030;-72
2023/06/18 12:27:59;;;;;;;12.20;5.45;;;27.70;53.10;;;;;;4998304;28;20664;-72
2023/06/18 12:30:33;;;;;;;7.07;5.32;;;27.60;53.30;;;;;;5004620;28;20041;-77
2023/06/18 12:33:08;;;;;;;8.25;5.85;;;27.60;52.10;;;;;;5003779;28;20025;-72
2023/06/18 12:35:35;;;;;;;9.38;5.78;;;27.60;51.50;;;;;;5000044;28;20120;-74
2023/06/18 12:38:09;;;;;;;6.78;5.22;;;27.70;51.30;;;;;;5004224;28;20460;-73
2023/06/18 12:40:47;;;;;;;15.00;6.68;;;27.80;51.30;;;;;;4988985;28;20105;-73
2023/06/18 12:43:15;;;;;;;17.05;6.70;;;27.80;51.60;;;;;;5000922;28;20402;-74
2023/06/18 12:45:42;;;;;;;32.15;8.98;;;27.80;51.00;;;;;;4986935;28;20176;-77